sensor_id;sensor_type;location;lat;lon;timestamp;P1;durP1;ratioP1;P2;durP2;ratioP2
76591;SDS011;65481;47.600;19.682;2023-02-18T00:00:08;22.85;;;13.45;;
76591;SDS011;65481;47.600;19.682;2023-02-18T00:05:12;20.35;;;13.18;;
76591;SDS011;65481;47.600;19.682;2023-02-18T00:10:14;18.92;;;12.15;;
76591;SDS011;65481;47.600;19.682;2023-02-18T00:15:15;17.17;;;11.18;;
76591;SDS011;65481;47.600;19.682;2023-02-18T00:20:15;17.65;;;11.45;;
76591;SDS011;65481;47.600;19.682;2023-02-18T00:25:16;23.88;;;12.90;;
76591;SDS011;65481;47.600;19.682;2023-02-18T00:30:17;22.23;;;13.63;;
76591;SDS011;65481;47.600;19.682;2023-02-18T00:35:17;21.08;;;12.70;;
76591;SDS011;65481;47.600;19.682;2023-02-18T00:40:18;18.23;;;11.38;;
76591;SDS011;65481;47.600;19.682;2023-02-18T00:45:19;17.00;;;10.52;;
76591;SDS011;65481;47.600;19.682;2023-02-18T00:50:19;7.25;;;3.92;;
76591;SDS011;65481;47.600;19.682;2023-02-18T00:55:20;4.43;;;2.97;;
76591;SDS011;65481;47.600;19.682;2023-02-18T01:00:20;3.40;;;2.28;;
76591;SDS011;65481;47.600;19.682;2023-02-18T01:05:21;5.28;;;2.28;;
76591;SDS011;65481;47.600;19.682;2023-02-18T01:10:22;4.15;;;2.05;;
76591;SDS011;65481;47.600;19.682;2023-02-18T01:15:22;2.50;;;2.10;;
76591;SDS011;65481;47.600;19.682;2023-02-18T01:20:23;4.68;;;2.38;;
76591;SDS011;65481;47.600;19.682;2023-02-18T01:25:24;3.22;;;1.98;;
76591;SDS011;65481;47.600;19.682;2023-02-18T01:30:24;4.82;;;2.13;;
76591;SDS011;65481;47.600;19.682;2023-02-18T01:35:25;2.83;;;1.90;;
76591;SDS011;65481;47.600;19.682;2023-02-18T01:40:27;3.85;;;1.98;;
76591;SDS011;65481;47.600;19.682;2023-02-18T01:46:16;3.78;;;1.80;;
76591;SDS011;65481;47.600;19.682;2023-02-18T01:51:02;1.92;;;1.40;;
76591;SDS011;65481;47.600;19.682;2023-02-18T01:56:04;3.13;;;1.60;;
76591;SDS011;65481;47.600;19.682;2023-02-18T02:01:08;2.50;;;1.80;;
76591;SDS011;65481;47.600;19.682;2023-02-18T02:06:11;2.30;;;1.48;;
76591;SDS011;65481;47.600;19.682;2023-02-18T02:11:39;2.10;;;1.42;;
76591;SDS011;65481;47.600;19.682;2023-02-18T02:17:02;2.08;;;1.55;;
76591;SDS011;65481;47.600;19.682;2023-02-18T02:39:18;2.67;;;1.80;;
76591;SDS011;65481;47.600;19.682;2023-02-18T02:44:37;2.78;;;1.80;;
76591;SDS011;65481;47.600;19.682;2023-02-18T02:50:08;2.50;;;1.35;;
76591;SDS011;65481;47.600;19.682;2023-02-18T02:55:12;2.50;;;1.57;;
76591;SDS011;65481;47.600;19.682;2023-02-18T03:00:14;1.88;;;1.17;;
76591;SDS011;65481;47.600;19.682;2023-02-18T03:11:11;2.00;;;1.40;;
76591;SDS011;65481;47.600;19.682;2023-02-18T03:21:31;2.15;;;1.40;;
76591;SDS011;65481;47.600;19.682;2023-02-18T03:26:39;1.73;;;1.10;;
76591;SDS011;65481;47.600;19.682;2023-02-18T03:31:45;2.58;;;1.20;;
76591;SDS011;65481;47.600;19.682;2023-02-18T03:36:52;3.03;;;1.20;;
76591;SDS011;65481;47.600;19.682;2023-02-18T03:41:54;3.83;;;1.27;;
76591;SDS011;65481;47.600;19.682;2023-02-18T03:46:54;1.48;;;1.23;;
76591;SDS011;65481;47.600;19.682;2023-02-18T03:51:55;1.40;;;1.08;;
76591;SDS011;65481;47.600;19.682;2023-02-18T03:56:55;2.47;;;1.00;;
76591;SDS011;65481;47.600;19.682;2023-02-18T04:01:56;2.08;;;1.48;;
76591;SDS011;65481;47.600;19.682;2023-02-18T04:06:56;1.17;;;0.98;;
76591;SDS011;65481;47.600;19.682;2023-02-18T04:11:57;2.15;;;1.00;;
76591;SDS011;65481;47.600;19.682;2023-02-18T04:16:57;2.08;;;1.10;;
76591;SDS011;65481;47.600;19.682;2023-02-18T04:21:59;1.42;;;1.23;;
76591;SDS011;65481;47.600;19.682;2023-02-18T04:27:00;1.70;;;1.00;;
76591;SDS011;65481;47.600;19.682;2023-02-18T04:32:00;2.35;;;1.40;;
76591;SDS011;65481;47.600;19.682;2023-02-18T04:37:01;3.20;;;1.23;;
76591;SDS011;65481;47.600;19.682;2023-02-18T04:42:02;2.47;;;1.40;;
76591;SDS011;65481;47.600;19.682;2023-02-18T04:47:08;3.55;;;1.58;;
76591;SDS011;65481;47.600;19.682;2023-02-18T04:52:10;2.15;;;1.42;;
76591;SDS011;65481;47.600;19.682;2023-02-18T04:57:11;3.95;;;1.38;;
76591;SDS011;65481;47.600;19.682;2023-02-18T05:02:13;3.58;;;2.20;;
76591;SDS011;65481;47.600;19.682;2023-02-18T05:07:13;2.80;;;1.40;;
76591;SDS011;65481;47.600;19.682;2023-02-18T05:12:15;2.00;;;1.27;;
76591;SDS011;65481;47.600;19.682;2023-02-18T05:17:16;2.40;;;1.40;;
76591;SDS011;65481;47.600;19.682;2023-02-18T05:22:17;3.70;;;1.70;;
76591;SDS011;65481;47.600;19.682;2023-02-18T05:27:17;2.75;;;1.70;;
76591;SDS011;65481;47.600;19.682;2023-02-18T05:32:18;2.63;;;2.03;;
76591;SDS011;65481;47.600;19.682;2023-02-18T05:37:19;6.63;;;2.85;;
76591;SDS011;65481;47.600;19.682;2023-02-18T05:42:20;4.38;;;2.10;;
76591;SDS011;65481;47.600;19.682;2023-02-18T05:47:21;7.75;;;3.60;;
76591;SDS011;65481;47.600;19.682;2023-02-18T05:52:22;9.88;;;4.60;;
76591;SDS011;65481;47.600;19.682;2023-02-18T05:57:23;5.88;;;2.65;;
76591;SDS011;65481;47.600;19.682;2023-02-18T06:02:25;20.05;;;7.20;;
76591;SDS011;65481;47.600;19.682;2023-02-18T06:07:25;28.02;;;11.43;;
76591;SDS011;65481;47.600;19.682;2023-02-18T06:12:26;3.15;;;1.73;;
76591;SDS011;65481;47.600;19.682;2023-02-18T06:17:27;2.25;;;1.75;;
76591;SDS011;65481;47.600;19.682;2023-02-18T06:22:28;2.10;;;1.50;;
76591;SDS011;65481;47.600;19.682;2023-02-18T06:27:29;4.70;;;2.50;;
76591;SDS011;65481;47.600;19.682;2023-02-18T06:32:29;3.47;;;2.50;;
76591;SDS011;65481;47.600;19.682;2023-02-18T06:37:31;2.75;;;1.38;;
76591;SDS011;65481;47.600;19.682;2023-02-18T06:42:32;1.90;;;1.50;;
76591;SDS011;65481;47.600;19.682;2023-02-18T06:47:33;2.65;;;1.63;;
76591;SDS011;65481;47.600;19.682;2023-02-18T06:52:34;1.83;;;1.50;;
76591;SDS011;65481;47.600;19.682;2023-02-18T06:57:37;1.33;;;1.02;;
76591;SDS011;65481;47.600;19.682;2023-02-18T07:02:39;2.10;;;1.30;;
76591;SDS011;65481;47.600;19.682;2023-02-18T07:07:40;2.17;;;1.30;;
76591;SDS011;65481;47.600;19.682;2023-02-18T07:12:41;2.53;;;1.75;;
76591;SDS011;65481;47.600;19.682;2023-02-18T07:17:43;2.28;;;1.38;;
76591;SDS011;65481;47.600;19.682;2023-02-18T07:22:43;2.08;;;1.33;;
76591;SDS011;65481;47.600;19.682;2023-02-18T07:27:44;1.98;;;1.50;;
76591;SDS011;65481;47.600;19.682;2023-02-18T07:32:45;1.77;;;1.38;;
76591;SDS011;65481;47.600;19.682;2023-02-18T07:37:46;3.67;;;1.88;;
76591;SDS011;65481;47.600;19.682;2023-02-18T07:42:48;3.10;;;1.67;;
76591;SDS011;65481;47.600;19.682;2023-02-18T07:47:49;4.35;;;2.30;;
76591;SDS011;65481;47.600;19.682;2023-02-18T07:52:50;13.48;;;6.97;;
76591;SDS011;65481;47.600;19.682;2023-02-18T07:57:51;3.28;;;2.20;;
76591;SDS011;65481;47.600;19.682;2023-02-18T08:03:02;3.03;;;1.75;;
76591;SDS011;65481;47.600;19.682;2023-02-18T08:08:03;2.78;;;1.63;;
76591;SDS011;65481;47.600;19.682;2023-02-18T08:13:04;2.72;;;1.63;;
76591;SDS011;65481;47.600;19.682;2023-02-18T08:18:06;2.45;;;1.65;;
76591;SDS011;65481;47.600;19.682;2023-02-18T08:23:09;5.10;;;2.92;;
76591;SDS011;65481;47.600;19.682;2023-02-18T08:28:11;2.80;;;1.70;;
76591;SDS011;65481;47.600;19.682;2023-02-18T08:33:12;6.28;;;4.00;;
76591;SDS011;65481;47.600;19.682;2023-02-18T08:38:13;4.63;;;2.17;;
76591;SDS011;65481;47.600;19.682;2023-02-18T08:43:15;2.60;;;1.83;;
76591;SDS011;65481;47.600;19.682;2023-02-18T08:48:17;2.22;;;1.60;;
76591;SDS011;65481;47.600;19.682;2023-02-18T08:53:17;2.60;;;1.90;;
76591;SDS011;65481;47.600;19.682;2023-02-18T08:58:18;6.00;;;3.70;;
76591;SDS011;65481;47.600;19.682;2023-02-18T09:03:19;5.53;;;2.80;;
76591;SDS011;65481;47.600;19.682;2023-02-18T09:08:21;8.32;;;5.28;;
76591;SDS011;65481;47.600;19.682;2023-02-18T09:13:22;6.03;;;3.50;;
76591;SDS011;65481;47.600;19.682;2023-02-18T09:18:23;2.80;;;1.90;;
76591;SDS011;65481;47.600;19.682;2023-02-18T09:23:28;3.10;;;2.13;;
76591;SDS011;65481;47.600;19.682;2023-02-18T09:28:30;2.88;;;2.42;;
76591;SDS011;65481;47.600;19.682;2023-02-18T09:33:34;4.78;;;2.05;;
76591;SDS011;65481;47.600;19.682;2023-02-18T09:38:36;2.17;;;1.67;;
76591;SDS011;65481;47.600;19.682;2023-02-18T09:43:39;2.83;;;1.60;;
76591;SDS011;65481;47.600;19.682;2023-02-18T09:48:44;2.78;;;2.10;;
76591;SDS011;65481;47.600;19.682;2023-02-18T09:53:48;2.17;;;1.58;;
76591;SDS011;65481;47.600;19.682;2023-02-18T09:58:49;4.30;;;2.58;;
76591;SDS011;65481;47.600;19.682;2023-02-18T10:03:51;2.63;;;2.15;;
76591;SDS011;65481;47.600;19.682;2023-02-18T10:08:53;3.50;;;1.88;;
76591;SDS011;65481;47.600;19.682;2023-02-18T10:13:55;3.42;;;2.05;;
76591;SDS011;65481;47.600;19.682;2023-02-18T10:19:03;5.13;;;1.95;;
76591;SDS011;65481;47.600;19.682;2023-02-18T10:24:37;3.70;;;2.17;;
76591;SDS011;65481;47.600;19.682;2023-02-18T10:30:01;4.07;;;2.60;;
76591;SDS011;65481;47.600;19.682;2023-02-18T10:51:02;2.78;;;1.52;;
76591;SDS011;65481;47.600;19.682;2023-02-18T10:56:30;1.98;;;1.30;;
76591;SDS011;65481;47.600;19.682;2023-02-18T11:01:37;3.55;;;1.83;;
76591;SDS011;65481;47.600;19.682;2023-02-18T11:50:23;6.00;;;3.80;;
76591;SDS011;65481;47.600;19.682;2023-02-18T11:55:24;1.60;;;1.10;;
76591;SDS011;65481;47.600;19.682;2023-02-18T12:05:41;2.83;;;1.40;;
76591;SDS011;65481;47.600;19.682;2023-02-18T12:10:51;5.38;;;1.95;;
76591;SDS011;65481;47.600;19.682;2023-02-18T12:16:12;1.23;;;0.95;;
76591;SDS011;65481;47.600;19.682;2023-02-18T12:21:26;1.55;;;1.27;;
76591;SDS011;65481;47.600;19.682;2023-02-18T12:26:39;8.57;;;4.10;;
76591;SDS011;65481;47.600;19.682;2023-02-18T12:32:18;9.40;;;4.38;;
76591;SDS011;65481;47.600;19.682;2023-02-18T12:43:15;11.35;;;3.78;;
76591;SDS011;65481;47.600;19.682;2023-02-18T12:48:37;2.55;;;1.48;;
76591;SDS011;65481;47.600;19.682;2023-02-18T13:09:32;10.43;;;4.07;;
76591;SDS011;65481;47.600;19.682;2023-02-18T13:15:02;4.15;;;2.60;;
76591;SDS011;65481;47.600;19.682;2023-02-18T13:20:16;4.38;;;2.20;;
76591;SDS011;65481;47.600;19.682;2023-02-18T13:25:21;5.03;;;3.22;;
76591;SDS011;65481;47.600;19.682;2023-02-18T13:35:48;3.70;;;2.42;;
76591;SDS011;65481;47.600;19.682;2023-02-18T13:40:56;4.07;;;3.65;;
76591;SDS011;65481;47.600;19.682;2023-02-18T13:46:11;2.45;;;2.03;;
76591;SDS011;65481;47.600;19.682;2023-02-18T13:51:15;3.47;;;2.05;;
76591;SDS011;65481;47.600;19.682;2023-02-18T13:56:29;3.20;;;1.80;;
76591;SDS011;65481;47.600;19.682;2023-02-18T14:01:48;12.48;;;4.15;;
76591;SDS011;65481;47.600;19.682;2023-02-18T14:18:07;3.13;;;2.00;;
76591;SDS011;65481;47.600;19.682;2023-02-18T14:33:35;7.05;;;5.22;;
76591;SDS011;65481;47.600;19.682;2023-02-18T14:38:54;6.60;;;4.75;;
76591;SDS011;65481;47.600;19.682;2023-02-18T14:49:05;2.30;;;1.63;;
76591;SDS011;65481;47.600;19.682;2023-02-18T14:54:28;2.70;;;1.88;;
76591;SDS011;65481;47.600;19.682;2023-02-18T14:59:33;3.38;;;1.40;;
76591;SDS011;65481;47.600;19.682;2023-02-18T15:04:36;1.70;;;1.30;;
76591;SDS011;65481;47.600;19.682;2023-02-18T15:09:43;2.63;;;1.60;;
76591;SDS011;65481;47.600;19.682;2023-02-18T15:14:45;2.10;;;1.15;;
76591;SDS011;65481;47.600;19.682;2023-02-18T15:19:55;1.20;;;0.80;;
76591;SDS011;65481;47.600;19.682;2023-02-18T15:25:04;1.48;;;1.10;;
76591;SDS011;65481;47.600;19.682;2023-02-18T15:35:16;3.10;;;0.80;;
76591;SDS011;65481;47.600;19.682;2023-02-18T15:40:19;3.13;;;0.70;;
76591;SDS011;65481;47.600;19.682;2023-02-18T15:45:24;1.30;;;0.88;;
76591;SDS011;65481;47.600;19.682;2023-02-18T15:50:34;2.47;;;1.40;;
76591;SDS011;65481;47.600;19.682;2023-02-18T15:55:38;3.60;;;1.40;;
76591;SDS011;65481;47.600;19.682;2023-02-18T16:00:52;1.20;;;1.10;;
76591;SDS011;65481;47.600;19.682;2023-02-18T16:11:17;2.28;;;1.35;;
76591;SDS011;65481;47.600;19.682;2023-02-18T16:16:26;8.85;;;5.60;;
76591;SDS011;65481;47.600;19.682;2023-02-18T16:21:39;27.77;;;16.52;;
76591;SDS011;65481;47.600;19.682;2023-02-18T16:26:43;33.25;;;20.25;;
76591;SDS011;65481;47.600;19.682;2023-02-18T16:31:45;37.20;;;20.23;;
76591;SDS011;65481;47.600;19.682;2023-02-18T16:36:46;37.90;;;22.25;;
76591;SDS011;65481;47.600;19.682;2023-02-18T16:42:09;46.72;;;23.48;;
76591;SDS011;65481;47.600;19.682;2023-02-18T16:47:13;41.45;;;22.90;;
76591;SDS011;65481;47.600;19.682;2023-02-18T16:52:16;48.92;;;24.10;;
76591;SDS011;65481;47.600;19.682;2023-02-18T16:57:18;47.28;;;25.00;;
76591;SDS011;65481;47.600;19.682;2023-02-18T17:02:20;52.28;;;27.33;;
76591;SDS011;65481;47.600;19.682;2023-02-18T17:07:21;49.60;;;28.10;;
76591;SDS011;65481;47.600;19.682;2023-02-18T17:12:22;52.33;;;28.00;;
76591;SDS011;65481;47.600;19.682;2023-02-18T17:17:24;51.92;;;27.88;;
76591;SDS011;65481;47.600;19.682;2023-02-18T17:22:27;56.47;;;29.70;;
76591;SDS011;65481;47.600;19.682;2023-02-18T17:27:27;60.58;;;31.95;;
76591;SDS011;65481;47.600;19.682;2023-02-18T17:32:29;57.45;;;30.35;;
76591;SDS011;65481;47.600;19.682;2023-02-18T17:37:30;63.63;;;31.50;;
76591;SDS011;65481;47.600;19.682;2023-02-18T17:42:31;57.55;;;30.70;;
76591;SDS011;65481;47.600;19.682;2023-02-18T17:47:35;63.28;;;31.80;;
76591;SDS011;65481;47.600;19.682;2023-02-18T17:52:35;61.47;;;32.60;;
76591;SDS011;65481;47.600;19.682;2023-02-18T17:57:36;64.97;;;33.70;;
76591;SDS011;65481;47.600;19.682;2023-02-18T18:02:37;65.53;;;32.97;;
76591;SDS011;65481;47.600;19.682;2023-02-18T18:07:37;67.78;;;33.53;;
76591;SDS011;65481;47.600;19.682;2023-02-18T18:12:38;65.93;;;32.58;;
76591;SDS011;65481;47.600;19.682;2023-02-18T18:17:39;72.15;;;35.40;;
76591;SDS011;65481;47.600;19.682;2023-02-18T18:22:40;72.32;;;35.08;;
76591;SDS011;65481;47.600;19.682;2023-02-18T18:27:40;68.25;;;36.13;;
76591;SDS011;65481;47.600;19.682;2023-02-18T18:32:44;70.75;;;36.72;;
76591;SDS011;65481;47.600;19.682;2023-02-18T18:37:45;72.47;;;34.50;;
76591;SDS011;65481;47.600;19.682;2023-02-18T18:42:46;72.03;;;35.42;;
76591;SDS011;65481;47.600;19.682;2023-02-18T18:47:48;79.03;;;38.80;;
76591;SDS011;65481;47.600;19.682;2023-02-18T18:52:51;69.78;;;35.42;;
76591;SDS011;65481;47.600;19.682;2023-02-18T18:57:53;76.85;;;36.90;;
76591;SDS011;65481;47.600;19.682;2023-02-18T19:02:56;70.65;;;35.83;;
76591;SDS011;65481;47.600;19.682;2023-02-18T19:07:58;76.55;;;39.55;;
76591;SDS011;65481;47.600;19.682;2023-02-18T19:13:02;66.65;;;34.78;;
76591;SDS011;65481;47.600;19.682;2023-02-18T19:18:15;69.63;;;35.05;;
76591;SDS011;65481;47.600;19.682;2023-02-18T19:23:17;69.07;;;36.08;;
76591;SDS011;65481;47.600;19.682;2023-02-18T19:28:18;76.85;;;37.15;;
76591;SDS011;65481;47.600;19.682;2023-02-18T19:33:19;72.47;;;37.60;;
76591;SDS011;65481;47.600;19.682;2023-02-18T19:38:19;72.93;;;37.90;;
76591;SDS011;65481;47.600;19.682;2023-02-18T19:43:20;72.07;;;34.38;;
76591;SDS011;65481;47.600;19.682;2023-02-18T19:48:21;61.95;;;33.28;;
76591;SDS011;65481;47.600;19.682;2023-02-18T19:53:23;63.78;;;33.83;;
76591;SDS011;65481;47.600;19.682;2023-02-18T19:58:24;63.17;;;32.78;;
76591;SDS011;65481;47.600;19.682;2023-02-18T20:03:25;67.97;;;33.30;;
76591;SDS011;65481;47.600;19.682;2023-02-18T20:08:26;53.40;;;28.77;;
76591;SDS011;65481;47.600;19.682;2023-02-18T20:13:27;51.13;;;25.00;;
76591;SDS011;65481;47.600;19.682;2023-02-18T20:18:28;51.45;;;26.10;;
76591;SDS011;65481;47.600;19.682;2023-02-18T20:23:29;44.65;;;22.45;;
76591;SDS011;65481;47.600;19.682;2023-02-18T20:28:30;36.85;;;19.17;;
76591;SDS011;65481;47.600;19.682;2023-02-18T20:33:31;22.15;;;13.05;;
76591;SDS011;65481;47.600;19.682;2023-02-18T20:38:32;14.68;;;9.02;;
76591;SDS011;65481;47.600;19.682;2023-02-18T20:43:34;14.57;;;8.55;;
76591;SDS011;65481;47.600;19.682;2023-02-18T20:48:35;17.65;;;8.68;;
76591;SDS011;65481;47.600;19.682;2023-02-18T20:53:37;13.35;;;7.70;;
76591;SDS011;65481;47.600;19.682;2023-02-18T20:58:39;12.93;;;7.47;;
76591;SDS011;65481;47.600;19.682;2023-02-18T21:03:41;15.05;;;7.75;;
76591;SDS011;65481;47.600;19.682;2023-02-18T21:08:43;13.25;;;7.13;;
76591;SDS011;65481;47.600;19.682;2023-02-18T21:13:46;12.57;;;6.60;;
76591;SDS011;65481;47.600;19.682;2023-02-18T21:18:48;11.02;;;6.50;;
76591;SDS011;65481;47.600;19.682;2023-02-18T21:23:50;12.13;;;6.72;;
76591;SDS011;65481;47.600;19.682;2023-02-18T21:28:52;11.80;;;7.28;;
76591;SDS011;65481;47.600;19.682;2023-02-18T21:33:54;11.02;;;6.57;;
76591;SDS011;65481;47.600;19.682;2023-02-18T21:38:56;10.93;;;6.07;;
76591;SDS011;65481;47.600;19.682;2023-02-18T21:43:59;9.75;;;6.38;;
76591;SDS011;65481;47.600;19.682;2023-02-18T21:49:01;10.90;;;6.50;;
76591;SDS011;65481;47.600;19.682;2023-02-18T21:54:05;8.07;;;5.18;;
76591;SDS011;65481;47.600;19.682;2023-02-18T21:59:05;8.88;;;4.90;;
76591;SDS011;65481;47.600;19.682;2023-02-18T22:04:06;11.10;;;5.30;;
76591;SDS011;65481;47.600;19.682;2023-02-18T22:09:07;9.90;;;5.97;;
76591;SDS011;65481;47.600;19.682;2023-02-18T22:14:08;15.48;;;6.95;;
76591;SDS011;65481;47.600;19.682;2023-02-18T22:19:10;12.15;;;6.47;;
76591;SDS011;65481;47.600;19.682;2023-02-18T22:24:12;30.83;;;16.52;;
76591;SDS011;65481;47.600;19.682;2023-02-18T22:29:14;13.73;;;7.45;;
76591;SDS011;65481;47.600;19.682;2023-02-18T22:34:16;11.90;;;7.10;;
76591;SDS011;65481;47.600;19.682;2023-02-18T22:39:17;10.65;;;6.45;;
76591;SDS011;65481;47.600;19.682;2023-02-18T22:44:17;11.60;;;6.28;;
76591;SDS011;65481;47.600;19.682;2023-02-18T22:49:18;9.65;;;5.55;;
76591;SDS011;65481;47.600;19.682;2023-02-18T22:54:18;10.18;;;6.03;;
76591;SDS011;65481;47.600;19.682;2023-02-18T22:59:20;10.90;;;5.43;;
76591;SDS011;65481;47.600;19.682;2023-02-18T23:04:20;12.80;;;8.73;;
76591;SDS011;65481;47.600;19.682;2023-02-18T23:09:22;9.07;;;5.90;;
76591;SDS011;65481;47.600;19.682;2023-02-18T23:14:24;8.13;;;5.40;;
76591;SDS011;65481;47.600;19.682;2023-02-18T23:19:27;7.55;;;5.22;;
76591;SDS011;65481;47.600;19.682;2023-02-18T23:24:30;6.70;;;4.60;;
76591;SDS011;65481;47.600;19.682;2023-02-18T23:29:32;6.78;;;4.82;;
76591;SDS011;65481;47.600;19.682;2023-02-18T23:34:33;7.88;;;4.15;;
76591;SDS011;65481;47.600;19.682;2023-02-18T23:39:33;8.88;;;4.32;;
76591;SDS011;65481;47.600;19.682;2023-02-18T23:44:34;7.20;;;4.05;;
76591;SDS011;65481;47.600;19.682;2023-02-18T23:49:35;7.47;;;3.95;;
76591;SDS011;65481;47.600;19.682;2023-02-18T23:54:35;5.70;;;3.13;;
76591;SDS011;65481;47.600;19.682;2023-02-18T23:59:36;5.32;;;3.13;;
